Port Aransas, TX (PTAT2)

Conditions for Monday

Daily
Weekly
Monthly
Marine Data Graph

Marine & Boating Location Search

Enter a coastal zip code for marine weather.

General Information

Location: 27.826 -97.051
Buoy Type: C-MAN Station
Payload: MARS payload
Owned by: NDBC
Windspeed: Measured by obtained from anemometer
Sea Surface: Measured by Intake

Weather and Wave Data

Time Temp Humidity Wind Pressure
  Air
(°F)
Water
(°F)
  Dir Speed
(kts)
Speed
(mph)
Atmo.
(in)
Tend.
(in)
20:00 65 73 26 NE 2.0 2.3 30.18 +0.01
22:00 64 73 28 WNW 4.0 4.6 30.21 +0.04
23:00 63 73 40 North 8.0 9.2 30.21 +0.03
00:00 62 73 42 North 9.0 10.4 30.22 +0.02
01:00 61 73 42 North 12.0 13.8 30.21 -
02:00 60 73 48 North 11.0 12.7 30.21 -
03:00 61 73 44 North 12.0 13.8 30.20 -0.02
04:00 61 73 46 North 11.0 12.7 30.19 -0.02
05:00 60 72 47 North 11.0 12.7 30.19 -0.01
06:00 60 72 52 North 12.0 13.8 30.21 +0.01
07:00 61 72 50 North 14.0 16.1 30.22 +0.02
08:00 58 72 61 North 9.0 10.4 30.22 +0.02
09:00 60 72 58 North 13.0 15.0 30.26 +0.04
10:00 63 72 48 North 16.0 18.4 30.26 +0.04
11:00 65 72 45 NNE 13.0 15.0 30.26 +0.04
12:00 65 71 46 NNE 13.0 15.0 30.26 -
13:00 65 71 44 NNE 12.0 13.8 30.24 -0.02
14:00 65 72 37 NE 10.0 11.5 30.22 -0.04
15:00 66 72 32 NE 8.0 9.2 30.19 -0.07
16:00 66 73 25 ENE 6.0 6.9 30.17 -0.07
17:00 66 73 26 ENE 7.0 8.1 30.17 -0.05
18:00 66 73 30 NE 8.0 9.2 30.15 -0.04
19:00 66 73 36 ENE 8.0 9.2 30.15 -0.02
20:00 67 73 33 ENE 9.0 10.4 30.15 -0.02
21:00 67 72 33 East 5.0 5.8 30.16 -
22:00 68 72 34 East 7.0 8.1 30.17 +0.02
23:00 68 72 35 East 7.0 8.1 30.17 +0.02
00:00 69 72 38 ESE 6.0 6.9 30.15 -
01:00 69 72 41 SE 9.0 10.4 30.14 -0.03
02:00 69 72 43 SSE 8.0 9.2 30.12 -0.04
03:00 69 72 42 SE 10.0 11.5 30.11 -0.04

Detailed Wave Spectra